RoSS Sea — WDE3122 — position and weather

sailwx.info

Track history (hours):
 
Tides and Currents Weather Stations Pressure Air Temp Water Temp Dewpoint Dewpoint Depression Visibility Wind Speed Wind Dir Waves Ship Positions

RoSS Sea

Owner: Kirby Inland Marine, LP, Houston, TX. More information available from US FCC via Universal Licensing System and Coast Guard Vessel Documentation Center.

Last reported at 2015-Jan-31 03:18 UTC. Time now 2015-Jan-31 03:58 UTC.
Position N 40°39' W 074°10'.

Length 30 m; draft 5 m.

Type: Tow > 200 m length. MMSI: 367334360.

Date/timePositionNaut miles runAvg speedWind from/ knotsBaromVisibWave heightAir tempDewpointWater temp
2015-Jan-31 03:18N 40°39' W 074°10'0 0.0
2015-Jan-31 02:11N 40°39' W 074°10'0 0.1
2015-Jan-31 01:32N 40°38' W 074°10'0 0.0
2015-Jan-31 00:31N 40°38' W 074°10'0 0.0
2015-Jan-30 23:23N 40°38' W 074°10'2 1.1
2015-Jan-30 21:31N 40°38' W 074°12'0 0.4
2015-Jan-30 20:22N 40°37' W 074°12'1 0.8
2015-Jan-30 19:33N 40°38' W 074°12'2 1.9
2015-Jan-30 18:33N 40°38' W 074°10'0 0.0
2015-Jan-30 17:25N 40°38' W 074°10'0 0.0
2015-Jan-30 16:33N 40°38' W 074°10'0 0.0
2015-Jan-30 15:32N 40°38' W 074°10'0 0.0
2015-Jan-30 14:33N 40°38' W 074°10'0 0.0
2015-Jan-30 13:33N 40°38' W 074°10'0 0.0
2015-Jan-30 12:33N 40°38' W 074°10'0 0.0
2015-Jan-30 11:33N 40°38' W 074°10'7 1.8
2015-Jan-30 07:27N 40°32' W 074°15'4 3.3
2015-Jan-30 06:14N 40°36' W 074°12'3 5.0
2015-Jan-30 05:33N 40°38' W 074°10'0 0.0
2015-Jan-30 04:33N 40°38' W 074°10'2 2.2
2015-Jan-30 03:33N 40°39' W 074°07'2 2.3
2015-Jan-30 02:30N 40°39' W 074°10'0 0.3
2015-Jan-30 01:25N 40°38' W 074°10'4 4.3
2015-Jan-30 00:33N 40°39' W 074°05'10 9.6
2015-Jan-29 23:32N 40°46' W 073°57'1 0.9
2015-Jan-29 22:28N 40°47' W 073°55'7 7.6
2015-Jan-29 21:33N 40°41' W 074°01'8 3.3
2015-Jan-29 19:18N 40°39' W 074°10'2 2.5
2015-Jan-29 18:25N 40°37' W 074°12'0 0.1
2015-Jan-29 17:15N 40°37' W 074°12'5 7.8
2015-Jan-29 16:33N 40°39' W 074°06'3 3.3
2015-Jan-29 15:33N 40°38' W 074°10'0 0.0
2015-Jan-29 14:33N 40°38' W 074°10'0 0.0
2015-Jan-29 13:33N 40°38' W 074°10'0 0.0
2015-Jan-29 12:33N 40°38' W 074°10'0 0.0
2015-Jan-29 11:33N 40°38' W 074°10'0 0.0
2015-Jan-29 10:32N 40°38' W 074°10'0 0.0
2015-Jan-29 09:33N 40°38' W 074°10'0 0.0
2015-Jan-29 08:33N 40°38' W 074°10'0 0.0
2015-Jan-29 07:33N 40°38' W 074°10'0 0.0
2015-Jan-29 06:28N 40°38' W 074°10'0 0.0
2015-Jan-29 05:33N 40°38' W 074°10'1 0.5
2015-Jan-29 03:32N 40°39' W 074°11'2 2.4
2015-Jan-29 02:33N 40°39' W 074°08'3 3.4
2015-Jan-29 01:33N 40°38' W 074°04'0 0.3
2015-Jan-29 00:33N 40°38' W 074°03'1 1.5
2015-Jan-28 23:33N 40°39' W 074°03'5 5.3
2015-Jan-28 22:33N 40°38' W 074°10'3 3.0
2015-Jan-28 21:33N 40°39' W 074°06'3 3.0
2015-Jan-28 20:33N 40°38' W 074°10'0 0.0
2015-Jan-28 19:32N 40°38' W 074°10'0 0.0
2015-Jan-28 18:33N 40°38' W 074°10'4 4.4
2015-Jan-28 17:33N 40°40' W 074°04'4 4.2
2015-Jan-28 16:32N 40°39' W 074°10'0 0.3
2015-Jan-28 15:33N 40°39' W 074°10'0 0.3
2015-Jan-28 14:33N 40°39' W 074°10'0 0.0
2015-Jan-28 13:30N 40°39' W 074°10'0 0.0
2015-Jan-28 12:33N 40°39' W 074°10'0 0.0
2015-Jan-28 11:33N 40°39' W 074°10'2 1.8
2015-Jan-28 10:14N 40°37' W 074°12'2 3.5
2015-Jan-28 09:33N 40°39' W 074°10'0 0.0
2015-Jan-28 08:33N 40°39' W 074°10'0 0.0
2015-Jan-28 07:33N 40°39' W 074°10'0 0.0
2015-Jan-28 06:32N 40°39' W 074°10'0 0.0
2015-Jan-28 05:31N 40°39' W 074°10'0 0.0
2015-Jan-28 04:33N 40°39' W 074°10'4 4.2
2015-Jan-28 03:32N 40°40' W 074°04'5 5.0
2015-Jan-28 02:32N 40°39' W 074°11'2 1.8
2015-Jan-28 01:29N 40°37' W 074°12'2 2.5
2015-Jan-28 00:33N 40°39' W 074°10'0 0.0
2015-Jan-27 23:33N 40°38' W 074°10'0 0.0
2015-Jan-27 22:32N 40°38' W 074°10'2 0.9
2015-Jan-27 20:13N 40°37' W 074°12'2 3.0
2015-Jan-27 19:33N 40°38' W 074°10'0 0.0
2015-Jan-27 18:33N 40°38' W 074°10'0 0.0
2015-Jan-27 17:33N 40°38' W 074°10'0 0.0
2015-Jan-27 16:33N 40°38' W 074°10'0 0.0
2015-Jan-27 15:33N 40°38' W 074°10'0 0.0
2015-Jan-27 14:33N 40°38' W 074°10'0 0.0
2015-Jan-27 13:33N 40°38' W 074°10'0 0.0
2015-Jan-27 12:33N 40°39' W 074°10'0 0.0
2015-Jan-27 11:32N 40°39' W 074°10'0 0.0
2015-Jan-27 10:33N 40°39' W 074°10'0 0.0
2015-Jan-27 04:32N 40°39' W 074°10'4 4.3
2015-Jan-27 03:33N 40°39' W 074°04'3 1.4
2015-Jan-27 01:33N 40°39' W 074°08'1 0.8
2015-Jan-27 00:33N 40°39' W 074°07'3 2.6
2015-Jan-26 23:33N 40°39' W 074°10'6 4.7
2015-Jan-26 22:11N 40°33' W 074°15'1 0.1
2015-Jan-26 14:03N 40°33' W 074°15'4 0.4
2015-Jan-26 03:29N 40°36' W 074°12'3 3.3
2015-Jan-26 02:33N 40°39' W 074°10'0 0.0
2015-Jan-26 01:32N 40°39' W 074°10'0 0.0
2015-Jan-26 00:33N 40°39' W 074°10'0 0.0
2015-Jan-25 23:33N 40°39' W 074°10'0 0.0
2015-Jan-25 22:33N 40°38' W 074°10'0 0.0
2015-Jan-25 21:33N 40°38' W 074°10'0 0.0
2015-Jan-25 20:33N 40°38' W 074°10'0 0.0
2015-Jan-25 19:33N 40°38' W 074°10'0 0.0
2015-Jan-25 18:33N 40°38' W 074°10'0 0.0
2015-Jan-25 17:33N 40°38' W 074°10'0 0.0
2015-Jan-25 16:33N 40°38' W 074°10'0 0.0
2015-Jan-25 15:33N 40°38' W 074°10'0 0.0
2015-Jan-25 14:33N 40°38' W 074°10'0 0.0
2015-Jan-25 13:33N 40°38' W 074°10'0 0.0
2015-Jan-25 12:33N 40°38' W 074°10'0 0.0
2015-Jan-25 11:33N 40°38' W 074°10'0 0.0
2015-Jan-25 10:33N 40°38' W 074°10'0 0.0
2015-Jan-25 09:33N 40°38' W 074°10'0 0.0
2015-Jan-25 08:33N 40°38' W 074°10'0 0.0
2015-Jan-25 07:33N 40°38' W 074°10'0 0.0
2015-Jan-25 06:33N 40°38' W 074°10'0 0.0
2015-Jan-25 05:33N 40°38' W 074°10'0 0.0
2015-Jan-25 04:33N 40°39' W 074°10'0 0.0
2015-Jan-25 03:33N 40°38' W 074°10'0 0.0
2015-Jan-25 02:33N 40°38' W 074°10'0 0.0
2015-Jan-25 01:33N 40°38' W 074°10'0 0.0
2015-Jan-25 00:33N 40°38' W 074°10'0 0.0
2015-Jan-24 23:33N 40°38' W 074°10'0 0.0
2015-Jan-24 22:33N 40°38' W 074°10'0 0.0
2015-Jan-24 21:33N 40°38' W 074°10'0 0.0
2015-Jan-24 20:33N 40°38' W 074°10'0 0.0
2015-Jan-24 19:33N 40°38' W 074°10'0 0.0
2015-Jan-24 18:33N 40°38' W 074°10'0 0.0
2015-Jan-24 17:33N 40°38' W 074°10'0 0.0
2015-Jan-24 16:33N 40°38' W 074°10'0 0.0
2015-Jan-24 15:33N 40°38' W 074°10'0 0.0
2015-Jan-24 14:33N 40°38' W 074°10'0 0.0
2015-Jan-24 13:33N 40°38' W 074°10'0 0.0
2015-Jan-24 12:33N 40°38' W 074°10'0 0.0
2015-Jan-24 11:33N 40°38' W 074°10'0 0.0
2015-Jan-24 10:34N 40°38' W 074°10'0 0.0
2015-Jan-24 09:33N 40°38' W 074°10'0 0.0
2015-Jan-24 08:33N 40°38' W 074°10'0 0.0
2015-Jan-24 07:33N 40°38' W 074°10'0 0.0
2015-Jan-24 06:33N 40°38' W 074°10'0 0.0
2015-Jan-24 05:33N 40°38' W 074°10'0 0.0
2015-Jan-24 04:33N 40°38' W 074°10'0 0.0
2015-Jan-24 03:33N 40°38' W 074°10'0 0.0
2015-Jan-24 02:33N 40°38' W 074°10'0 0.0
2015-Jan-24 01:33N 40°38' W 074°10'0 0.0
2015-Jan-24 00:33N 40°38' W 074°10'0 0.0
2015-Jan-23 23:33N 40°38' W 074°10'0 0.0
2015-Jan-23 20:30N 40°38' W 074°10'0 0.0
2015-Jan-23 19:33N 40°38' W 074°10'0 0.0
2015-Jan-23 18:33N 40°39' W 074°10'0 0.0
2015-Jan-23 17:33N 40°38' W 074°10'0 0.0
2015-Jan-23 16:33N 40°39' W 074°10'0 0.0
2015-Jan-23 15:33N 40°38' W 074°10'0 0.0
2015-Jan-23 14:33N 40°38' W 074°10'0 0.0
2015-Jan-23 13:34N 40°38' W 074°10'0 0.0
2015-Jan-23 12:33N 40°38' W 074°10'0 0.0
2015-Jan-23 11:33N 40°38' W 074°10'0 0.0
2015-Jan-23 10:33N 40°38' W 074°10'0 0.0
2015-Jan-23 09:33N 40°38' W 074°10'0 0.0
2015-Jan-23 08:33N 40°38' W 074°10'0 0.0
2015-Jan-23 07:33N 40°38' W 074°10'0 0.0
2015-Jan-23 06:33N 40°38' W 074°10'0 0.0
2015-Jan-23 05:33N 40°38' W 074°10'0 0.0
2015-Jan-23 04:33N 40°38' W 074°10'0 0.0
2015-Jan-23 03:33N 40°38' W 074°10'0 0.0
2015-Jan-23 02:33N 40°38' W 074°10'0 0.0
2015-Jan-23 01:33N 40°38' W 074°10'0 0.0
2015-Jan-23 00:33N 40°38' W 074°10'0 0.0
2015-Jan-22 23:33N 40°38' W 074°10'0 0.0
2015-Jan-22 22:06N 40°38' W 074°10'0 0.0
2015-Jan-22 21:33N 40°38' W 074°10'0 0.0
2015-Jan-22 20:33N 40°38' W 074°10'0 0.0
2015-Jan-22 19:33N 40°38' W 074°10'0 0.0
2015-Jan-22 18:33N 40°38' W 074°10'0 0.0
2015-Jan-22 17:33N 40°38' W 074°10'0 0.0
2015-Jan-22 16:33N 40°38' W 074°10'0 0.0
2015-Jan-22 15:33N 40°38' W 074°10'0 0.0
2015-Jan-22 14:33N 40°38' W 074°10'0 0.0
2015-Jan-22 13:33N 40°38' W 074°10'0 0.0
2015-Jan-22 12:33N 40°38' W 074°10'0 0.0
2015-Jan-22 11:33N 40°38' W 074°10'0 0.0
2015-Jan-22 10:33N 40°38' W 074°10'0 0.0
2015-Jan-22 09:33N 40°38' W 074°10'0 0.0
2015-Jan-22 08:33N 40°38' W 074°10'0 0.0
2015-Jan-22 07:33N 40°38' W 074°10'0 0.0
2015-Jan-22 06:33N 40°38' W 074°10'0 0.0
2015-Jan-22 05:33N 40°38' W 074°10'0 0.0
2015-Jan-22 04:33N 40°38' W 074°10'0 0.0
2015-Jan-22 03:33N 40°38' W 074°10'0 0.0
2015-Jan-22 02:33N 40°38' W 074°10'0 0.0
2015-Jan-22 01:33N 40°38' W 074°10'0 0.0
2015-Jan-22 00:33N 40°38' W 074°10'0 0.0
2015-Jan-21 23:33N 40°38' W 074°10'0 0.0
2015-Jan-21 22:50N 40°38' W 074°10'0 0.0
2015-Jan-21 22:46N 40°38' W 074°10'0 0.0
2015-Jan-21 22:33N 40°38' W 074°10'0 0.0
2015-Jan-21 21:33N 40°38' W 074°10'0 0.0
2015-Jan-21 20:33N 40°38' W 074°10'0 0.0
2015-Jan-21 19:32N 40°38' W 074°10'0 0.0
2015-Jan-21 18:33N 40°38' W 074°10'0 0.0
2015-Jan-21 17:33N 40°38' W 074°10'0 0.0
2015-Jan-21 16:33N 40°38' W 074°10'0 0.0
2015-Jan-21 15:18N 40°38' W 074°10'0 0.0
2015-Jan-21 14:31N 40°38' W 074°10'0 0.0
2015-Jan-21 13:15N 40°38' W 074°10'0 0.0
2015-Jan-21 12:29N 40°38' W 074°10'0 0.0
2015-Jan-21 11:32N 40°38' W 074°10'0 0.0
2015-Jan-21 10:15N 40°38' W 074°10'0 0.0
2015-Jan-21 09:33N 40°38' W 074°10'0 0.0
2015-Jan-21 08:33N 40°38' W 074°10'0 0.0
2015-Jan-21 07:17N 40°38' W 074°10'0 0.0
2015-Jan-21 06:15N 40°38' W 074°10'0 0.0
2015-Jan-21 04:32N 40°38' W 074°10'0 0.0
2015-Jan-21 03:21N 40°38' W 074°10'  
Track history (hours):
 
Tides and Currents Weather Stations Pressure Air Temp Water Temp Dewpoint Dewpoint Depression Visibility Wind Speed Wind Dir Waves Ship Positions

RoSS Sea

Owner: Kirby Inland Marine, LP, Houston, TX. More information available from US FCC via Universal Licensing System and Coast Guard Vessel Documentation Center.

Last reported at 2015-Jan-31 03:18 UTC. Time now 2015-Jan-31 03:58 UTC.
Position N 40°39' W 074°10'.

Length 30 m; draft 5 m.

Type: Tow > 200 m length. MMSI: 367334360.

Date/timePositionNaut miles runAvg speedWind from/ knotsBaromVisibWave heightAir tempDewpointWater temp
2015-Jan-31 03:18N 40°39' W 074°10'0 0.0
2015-Jan-31 02:11N 40°39' W 074°10'0 0.1
2015-Jan-31 01:32N 40°38' W 074°10'0 0.0
2015-Jan-31 00:31N 40°38' W 074°10'0 0.0
2015-Jan-30 23:23N 40°38' W 074°10'2 1.1
2015-Jan-30 21:31N 40°38' W 074°12'0 0.4
2015-Jan-30 20:22N 40°37' W 074°12'1 0.8
2015-Jan-30 19:33N 40°38' W 074°12'2 1.9
2015-Jan-30 18:33N 40°38' W 074°10'0 0.0
2015-Jan-30 17:25N 40°38' W 074°10'0 0.0
2015-Jan-30 16:33N 40°38' W 074°10'0 0.0
2015-Jan-30 15:32N 40°38' W 074°10'0 0.0
2015-Jan-30 14:33N 40°38' W 074°10'0 0.0
2015-Jan-30 13:33N 40°38' W 074°10'0 0.0
2015-Jan-30 12:33N 40°38' W 074°10'0 0.0
2015-Jan-30 11:33N 40°38' W 074°10'7 1.8
2015-Jan-30 07:27N 40°32' W 074°15'4 3.3
2015-Jan-30 06:14N 40°36' W 074°12'3 5.0
2015-Jan-30 05:33N 40°38' W 074°10'0 0.0
2015-Jan-30 04:33N 40°38' W 074°10'2 2.2
2015-Jan-30 03:33N 40°39' W 074°07'2 2.3
2015-Jan-30 02:30N 40°39' W 074°10'0 0.3
2015-Jan-30 01:25N 40°38' W 074°10'4 4.3
2015-Jan-30 00:33N 40°39' W 074°05'10 9.6
2015-Jan-29 23:32N 40°46' W 073°57'1 0.9
2015-Jan-29 22:28N 40°47' W 073°55'7 7.6
2015-Jan-29 21:33N 40°41' W 074°01'8 3.3
2015-Jan-29 19:18N 40°39' W 074°10'2 2.5
2015-Jan-29 18:25N 40°37' W 074°12'0 0.1
2015-Jan-29 17:15N 40°37' W 074°12'5 7.8
2015-Jan-29 16:33N 40°39' W 074°06'3 3.3
2015-Jan-29 15:33N 40°38' W 074°10'0 0.0
2015-Jan-29 14:33N 40°38' W 074°10'0 0.0
2015-Jan-29 13:33N 40°38' W 074°10'0 0.0
2015-Jan-29 12:33N 40°38' W 074°10'0 0.0
2015-Jan-29 11:33N 40°38' W 074°10'0 0.0
2015-Jan-29 10:32N 40°38' W 074°10'0 0.0
2015-Jan-29 09:33N 40°38' W 074°10'0 0.0
2015-Jan-29 08:33N 40°38' W 074°10'0 0.0
2015-Jan-29 07:33N 40°38' W 074°10'0 0.0
2015-Jan-29 06:28N 40°38' W 074°10'0 0.0
2015-Jan-29 05:33N 40°38' W 074°10'1 0.5
2015-Jan-29 03:32N 40°39' W 074°11'2 2.4
2015-Jan-29 02:33N 40°39' W 074°08'3 3.4
2015-Jan-29 01:33N 40°38' W 074°04'0 0.3
2015-Jan-29 00:33N 40°38' W 074°03'1 1.5
2015-Jan-28 23:33N 40°39' W 074°03'5 5.3
2015-Jan-28 22:33N 40°38' W 074°10'3 3.0
2015-Jan-28 21:33N 40°39' W 074°06'3 3.0
2015-Jan-28 20:33N 40°38' W 074°10'0 0.0
2015-Jan-28 19:32N 40°38' W 074°10'0 0.0
2015-Jan-28 18:33N 40°38' W 074°10'4 4.4
2015-Jan-28 17:33N 40°40' W 074°04'4 4.2
2015-Jan-28 16:32N 40°39' W 074°10'0 0.3
2015-Jan-28 15:33N 40°39' W 074°10'0 0.3
2015-Jan-28 14:33N 40°39' W 074°10'0 0.0
2015-Jan-28 13:30N 40°39' W 074°10'0 0.0
2015-Jan-28 12:33N 40°39' W 074°10'0 0.0
2015-Jan-28 11:33N 40°39' W 074°10'2 1.8
2015-Jan-28 10:14N 40°37' W 074°12'2 3.5
2015-Jan-28 09:33N 40°39' W 074°10'0 0.0
2015-Jan-28 08:33N 40°39' W 074°10'0 0.0
2015-Jan-28 07:33N 40°39' W 074°10'0 0.0
2015-Jan-28 06:32N 40°39' W 074°10'0 0.0
2015-Jan-28 05:31N 40°39' W 074°10'0 0.0
2015-Jan-28 04:33N 40°39' W 074°10'4 4.2
2015-Jan-28 03:32N 40°40' W 074°04'5 5.0
2015-Jan-28 02:32N 40°39' W 074°11'2 1.8
2015-Jan-28 01:29N 40°37' W 074°12'2 2.5
2015-Jan-28 00:33N 40°39' W 074°10'0 0.0
2015-Jan-27 23:33N 40°38' W 074°10'0 0.0
2015-Jan-27 22:32N 40°38' W 074°10'2 0.9
2015-Jan-27 20:13N 40°37' W 074°12'2 3.0
2015-Jan-27 19:33N 40°38' W 074°10'0 0.0
2015-Jan-27 18:33N 40°38' W 074°10'0 0.0
2015-Jan-27 17:33N 40°38' W 074°10'0 0.0
2015-Jan-27 16:33N 40°38' W 074°10'0 0.0
2015-Jan-27 15:33N 40°38' W 074°10'0 0.0
2015-Jan-27 14:33N 40°38' W 074°10'0 0.0
2015-Jan-27 13:33N 40°38' W 074°10'0 0.0
2015-Jan-27 12:33N 40°39' W 074°10'0 0.0
2015-Jan-27 11:32N 40°39' W 074°10'0 0.0
2015-Jan-27 10:33N 40°39' W 074°10'0 0.0
2015-Jan-27 04:32N 40°39' W 074°10'4 4.3
2015-Jan-27 03:33N 40°39' W 074°04'3 1.4
2015-Jan-27 01:33N 40°39' W 074°08'1 0.8
2015-Jan-27 00:33N 40°39' W 074°07'3 2.6
2015-Jan-26 23:33N 40°39' W 074°10'6 4.7
2015-Jan-26 22:11N 40°33' W 074°15'1 0.1
2015-Jan-26 14:03N 40°33' W 074°15'4 0.4
2015-Jan-26 03:29N 40°36' W 074°12'3 3.3
2015-Jan-26 02:33N 40°39' W 074°10'0 0.0
2015-Jan-26 01:32N 40°39' W 074°10'0 0.0
2015-Jan-26 00:33N 40°39' W 074°10'0 0.0
2015-Jan-25 23:33N 40°39' W 074°10'0 0.0
2015-Jan-25 22:33N 40°38' W 074°10'0 0.0
2015-Jan-25 21:33N 40°38' W 074°10'0 0.0
2015-Jan-25 20:33N 40°38' W 074°10'0 0.0
2015-Jan-25 19:33N 40°38' W 074°10'0 0.0
2015-Jan-25 18:33N 40°38' W 074°10'0 0.0
2015-Jan-25 17:33N 40°38' W 074°10'0 0.0
2015-Jan-25 16:33N 40°38' W 074°10'0 0.0
2015-Jan-25 15:33N 40°38' W 074°10'0 0.0
2015-Jan-25 14:33N 40°38' W 074°10'0 0.0
2015-Jan-25 13:33N 40°38' W 074°10'0 0.0
2015-Jan-25 12:33N 40°38' W 074°10'0 0.0
2015-Jan-25 11:33N 40°38' W 074°10'0 0.0
2015-Jan-25 10:33N 40°38' W 074°10'0 0.0
2015-Jan-25 09:33N 40°38' W 074°10'0 0.0
2015-Jan-25 08:33N 40°38' W 074°10'0 0.0
2015-Jan-25 07:33N 40°38' W 074°10'0 0.0
2015-Jan-25 06:33N 40°38' W 074°10'0 0.0
2015-Jan-25 05:33N 40°38' W 074°10'0 0.0
2015-Jan-25 04:33N 40°39' W 074°10'0 0.0
2015-Jan-25 03:33N 40°38' W 074°10'0 0.0
2015-Jan-25 02:33N 40°38' W 074°10'0 0.0
2015-Jan-25 01:33N 40°38' W 074°10'0 0.0
2015-Jan-25 00:33N 40°38' W 074°10'0 0.0
2015-Jan-24 23:33N 40°38' W 074°10'0 0.0
2015-Jan-24 22:33N 40°38' W 074°10'0 0.0
2015-Jan-24 21:33N 40°38' W 074°10'0 0.0
2015-Jan-24 20:33N 40°38' W 074°10'0 0.0
2015-Jan-24 19:33N 40°38' W 074°10'0 0.0
2015-Jan-24 18:33N 40°38' W 074°10'0 0.0
2015-Jan-24 17:33N 40°38' W 074°10'0 0.0
2015-Jan-24 16:33N 40°38' W 074°10'0 0.0
2015-Jan-24 15:33N 40°38' W 074°10'0 0.0
2015-Jan-24 14:33N 40°38' W 074°10'0 0.0
2015-Jan-24 13:33N 40°38' W 074°10'0 0.0
2015-Jan-24 12:33N 40°38' W 074°10'0 0.0
2015-Jan-24 11:33N 40°38' W 074°10'0 0.0
2015-Jan-24 10:34N 40°38' W 074°10'0 0.0
2015-Jan-24 09:33N 40°38' W 074°10'0 0.0
2015-Jan-24 08:33N 40°38' W 074°10'0 0.0
2015-Jan-24 07:33N 40°38' W 074°10'0 0.0
2015-Jan-24 06:33N 40°38' W 074°10'0 0.0
2015-Jan-24 05:33N 40°38' W 074°10'0 0.0
2015-Jan-24 04:33N 40°38' W 074°10'0 0.0
2015-Jan-24 03:33N 40°38' W 074°10'0 0.0
2015-Jan-24 02:33N 40°38' W 074°10'0 0.0
2015-Jan-24 01:33N 40°38' W 074°10'0 0.0
2015-Jan-24 00:33N 40°38' W 074°10'0 0.0
2015-Jan-23 23:33N 40°38' W 074°10'0 0.0
2015-Jan-23 20:30N 40°38' W 074°10'0 0.0
2015-Jan-23 19:33N 40°38' W 074°10'0 0.0
2015-Jan-23 18:33N 40°39' W 074°10'0 0.0
2015-Jan-23 17:33N 40°38' W 074°10'0 0.0
2015-Jan-23 16:33N 40°39' W 074°10'0 0.0
2015-Jan-23 15:33N 40°38' W 074°10'0 0.0
2015-Jan-23 14:33N 40°38' W 074°10'0 0.0
2015-Jan-23 13:34N 40°38' W 074°10'0 0.0
2015-Jan-23 12:33N 40°38' W 074°10'0 0.0
2015-Jan-23 11:33N 40°38' W 074°10'0 0.0
2015-Jan-23 10:33N 40°38' W 074°10'0 0.0
2015-Jan-23 09:33N 40°38' W 074°10'0 0.0
2015-Jan-23 08:33N 40°38' W 074°10'0 0.0
2015-Jan-23 07:33N 40°38' W 074°10'0 0.0
2015-Jan-23 06:33N 40°38' W 074°10'0 0.0
2015-Jan-23 05:33N 40°38' W 074°10'0 0.0
2015-Jan-23 04:33N 40°38' W 074°10'0 0.0
2015-Jan-23 03:33N 40°38' W 074°10'0 0.0
2015-Jan-23 02:33N 40°38' W 074°10'0 0.0
2015-Jan-23 01:33N 40°38' W 074°10'0 0.0
2015-Jan-23 00:33N 40°38' W 074°10'0 0.0
2015-Jan-22 23:33N 40°38' W 074°10'0 0.0
2015-Jan-22 22:06N 40°38' W 074°10'0 0.0
2015-Jan-22 21:33N 40°38' W 074°10'0 0.0
2015-Jan-22 20:33N 40°38' W 074°10'0 0.0
2015-Jan-22 19:33N 40°38' W 074°10'0 0.0
2015-Jan-22 18:33N 40°38' W 074°10'0 0.0
2015-Jan-22 17:33N 40°38' W 074°10'0 0.0
2015-Jan-22 16:33N 40°38' W 074°10'0 0.0
2015-Jan-22 15:33N 40°38' W 074°10'0 0.0
2015-Jan-22 14:33N 40°38' W 074°10'0 0.0
2015-Jan-22 13:33N 40°38' W 074°10'0 0.0
2015-Jan-22 12:33N 40°38' W 074°10'0 0.0
2015-Jan-22 11:33N 40°38' W 074°10'0 0.0
2015-Jan-22 10:33N 40°38' W 074°10'0 0.0
2015-Jan-22 09:33N 40°38' W 074°10'0 0.0
2015-Jan-22 08:33N 40°38' W 074°10'0 0.0
2015-Jan-22 07:33N 40°38' W 074°10'0 0.0
2015-Jan-22 06:33N 40°38' W 074°10'0 0.0
2015-Jan-22 05:33N 40°38' W 074°10'0 0.0
2015-Jan-22 04:33N 40°38' W 074°10'0 0.0
2015-Jan-22 03:33N 40°38' W 074°10'0 0.0
2015-Jan-22 02:33N 40°38' W 074°10'0 0.0
2015-Jan-22 01:33N 40°38' W 074°10'0 0.0
2015-Jan-22 00:33N 40°38' W 074°10'0 0.0
2015-Jan-21 23:33N 40°38' W 074°10'0 0.0
2015-Jan-21 22:50N 40°38' W 074°10'0 0.0
2015-Jan-21 22:46N 40°38' W 074°10'0 0.0
2015-Jan-21 22:33N 40°38' W 074°10'0 0.0
2015-Jan-21 21:33N 40°38' W 074°10'0 0.0
2015-Jan-21 20:33N 40°38' W 074°10'0 0.0
2015-Jan-21 19:32N 40°38' W 074°10'0 0.0
2015-Jan-21 18:33N 40°38' W 074°10'0 0.0
2015-Jan-21 17:33N 40°38' W 074°10'0 0.0
2015-Jan-21 16:33N 40°38' W 074°10'0 0.0
2015-Jan-21 15:18N 40°38' W 074°10'0 0.0
2015-Jan-21 14:31N 40°38' W 074°10'0 0.0
2015-Jan-21 13:15N 40°38' W 074°10'0 0.0
2015-Jan-21 12:29N 40°38' W 074°10'0 0.0
2015-Jan-21 11:32N 40°38' W 074°10'0 0.0
2015-Jan-21 10:15N 40°38' W 074°10'0 0.0
2015-Jan-21 09:33N 40°38' W 074°10'0 0.0
2015-Jan-21 08:33N 40°38' W 074°10'0 0.0
2015-Jan-21 07:17N 40°38' W 074°10'0 0.0
2015-Jan-21 06:15N 40°38' W 074°10'0 0.0
2015-Jan-21 04:32N 40°38' W 074°10'0 0.0
2015-Jan-21 03:21N 40°38' W 074°10'  

Dump ship's entire track history